Time;durP1;ratioP1;P1;durP2;ratioP2;P2;SDS_P1;SDS_P2;PMS_P1;PMS_P2;Temp;Humidity;BMP_temperature;BMP_pressure;BME280_temperature;BME280_humidity;BME280_pressure;Samples;Min_cycle;Max_cycle;Signal;HPM_P1;HPM_P2
2022/09/16 08:45:29;;;;;;;11.40;5.29;;;;;;;12.65;89.27;96102.34;4192504;27;1218863;-73
2022/09/16 08:46:40;;;;;;;13.63;5.65;;;;;;;12.63;90.64;96098.97;2106330;28;20200;-73
2022/09/16 09:24:23;;;;;;;7.20;3.93;;;;;;;12.85;88.96;96095.00;2064221;27;1238639;-73
2022/09/16 09:25:46;;;;;;;8.27;3.30;;;;;;;12.83;87.82;96102.97;2106158;28;20289;-73
2022/09/16 09:35:30;;;;;;;5.27;2.97;;;;;;;12.72;87.08;96108.03;2074440;27;1227720;-76
2022/09/16 09:36:41;;;;;;;5.47;3.10;;;;;;;12.70;86.40;96092.41;2116414;28;20577;-76
2022/09/16 09:50:19;;;;;;;6.40;2.73;;;;;;;12.73;86.17;96089.63;2064813;27;1251327;-72
2022/09/16 10:11:31;;;;;;;4.70;2.50;;;;;;;12.35;87.16;96099.81;2081518;28;20569;-73
2022/09/16 10:23:34;;;;;;;3.83;2.47;;;;;;;12.47;88.39;96106.06;2082369;28;20577;-73
2022/09/16 10:24:43;;;;;;;5.30;2.40;;;;;;;12.68;88.44;96114.41;2082180;28;20256;-74
2022/09/16 10:33:27;;;;;;;9.73;2.40;;;;;;;12.92;84.72;96098.09;2082668;28;20585;-73
2022/09/16 10:34:33;;;;;;;5.25;3.03;;;;;;;12.98;83.68;96097.72;2077393;28;20938;-74
2022/09/16 10:42:34;;;;;;;8.20;2.38;;;;;;;13.22;82.24;96101.38;2084528;28;20559;-76
2022/09/16 10:43:38;;;;;;;7.28;2.42;;;;;;;13.07;83.53;96112.84;2080560;28;20658;-75
2022/09/16 10:54:36;;;;;;;14.00;2.27;;;;;;;12.74;83.60;96119.25;2060830;27;1285882;-74
2022/09/16 11:06:00;;;;;;;9.48;2.20;;;;;;;12.64;83.58;96123.38;2100098;27;20577;-74
2022/09/16 11:16:44;;;;;;;8.73;2.83;;;;;;;12.29;82.27;96097.56;2066202;27;1232838;-74
2022/09/16 11:23:56;;;;;;;5.00;2.05;;;;;;;12.74;81.58;96132.38;2085108;28;20580;-74
2022/09/16 11:25:07;;;;;;;7.78;2.35;;;;;;;12.73;80.53;96130.66;2034990;29;20427;-74
2022/09/16 11:26:25;;;;;;;12.32;2.42;;;;;;;12.57;81.20;96110.66;2068590;28;20210;-74
2022/09/16 11:34:22;;;;;;;6.00;2.05;;;;;;;14.07;76.12;96121.31;2062231;28;20226;-77
2022/09/16 11:36:02;;;;;;;124.60;63.80;;;;;;;14.02;75.70;96121.59;2069655;28;20667;-75
2022/09/16 11:37:21;;;;;;;9.00;3.20;;;;;;;14.00;73.90;96126.09;2063423;28;20220;-73
2022/09/16 11:38:42;;;;;;;9.95;1.92;;;;;;;14.08;74.36;96114.25;2061353;28;20877;-74
2022/09/16 11:39:49;;;;;;;7.10;1.92;;;;;;;14.24;72.13;96119.31;2062551;28;20305;-73
2022/09/16 11:41:04;;;;;;;6.35;1.77;;;;;;;14.30;71.56;96121.53;2062594;28;20234;-73
2022/09/16 11:42:09;;;;;;;4.80;1.73;;;;;;;14.32;72.20;96122.25;2062523;28;20242;-73
2022/09/16 11:43:43;;;;;;;5.22;1.55;;;;;;;14.30;72.48;96114.50;2061668;28;20249;-73
2022/09/16 11:48:42;;;;;;;8.88;1.77;;;;;;;14.72;71.92;96111.66;2090368;27;21145;-73
2022/09/16 11:50:02;;;;;;;6.15;1.60;;;;;;;15.00;69.98;96115.81;2079071;28;20231;-73
2022/09/16 11:51:18;;;;;;;3.88;2.10;;;;;;;14.91;69.95;96111.22;2080593;28;20204;-73
2022/09/16 11:52:26;;;;;;;4.53;1.63;;;;;;;15.14;67.92;96112.19;2082146;28;20284;-73
2022/09/16 11:53:52;;;;;;;4.22;1.58;;;;;;;15.36;66.29;96113.28;2086811;28;20196;-73
2022/09/16 11:55:22;;;;;;;5.13;1.38;;;;;;;15.51;66.55;96113.97;2082760;28;20788;-74
2022/09/16 12:03:25;;;;;;;5.22;1.70;;;;;;;17.29;60.02;96100.50;2079076;28;20223;-73
2022/09/16 12:04:30;;;;;;;2.85;1.40;;;;;;;17.55;60.96;96102.84;2080553;28;20325;-74
2022/09/16 12:05:48;;;;;;;2.75;1.60;;;;;;;17.37;62.71;96103.38;2083173;28;20192;-73
2022/09/16 12:07:15;;;;;;;10.82;2.20;;;;;;;16.41;64.45;96107.34;2082046;28;20307;-73
2022/09/16 12:20:04;;;;;;;6.05;2.13;;;;;;;14.36;67.60;96102.75;2089986;28;20213;-75
2022/09/16 12:21:16;;;;;;;7.22;2.30;;;;;;;14.22;69.79;96106.31;2093195;28;20302;-74
2022/09/16 12:27:34;;;;;;;6.88;1.85;;;;;;;14.63;68.16;96096.53;2099252;27;20586;-73
2022/09/16 12:28:47;;;;;;;8.18;2.28;;;;;;;14.69;68.29;96089.06;2090082;28;20259;-73
2022/09/16 12:30:01;;;;;;;10.32;2.05;;;;;;;14.56;68.17;96067.19;2085027;28;20310;-75
2022/09/16 12:31:35;;;;;;;4.18;1.90;;;;;;;14.58;68.57;96091.56;2084096;28;20192;-76
2022/09/16 12:32:46;;;;;;;12.52;1.80;;;;;;;14.45;68.43;96090.72;2084485;28;20771;-76
2022/09/16 12:33:55;;;;;;;4.15;2.00;;;;;;;14.38;68.57;96087.69;2085512;28;20350;-74
2022/09/16 12:35:02;;;;;;;6.47;1.90;;;;;;;14.43;68.88;96087.41;2086317;28;20292;-73
2022/09/16 12:38:19;;;;;;;8.05;2.35;;;;;;;15.00;67.68;96080.81;2089302;28;20562;-75
2022/09/16 12:39:24;;;;;;;6.38;1.98;;;;;;;15.56;67.17;96090.78;2084333;28;20315;-76
2022/09/16 12:40:34;;;;;;;7.80;1.83;;;;;;;15.64;65.87;96084.97;2078371;28;20224;-75
2022/09/16 12:41:59;;;;;;;4.00;2.08;;;;;;;15.18;66.91;96079.50;2078027;28;20291;-75
2022/09/16 12:43:21;;;;;;;9.23;2.60;;;;;;;15.05;66.37;96088.38;2081240;28;20231;-76
2022/09/16 12:44:48;;;;;;;11.20;2.15;;;;;;;14.90;66.46;96080.63;2081477;28;20712;-75
2022/09/16 12:46:44;;;;;;;3.15;1.50;;;;;;;14.78;67.26;96089.34;2080483;28;20196;-76
2022/09/16 12:48:37;;;;;;;3.75;1.80;;;;;;;15.09;66.62;96081.94;2072158;28;20201;-75
2022/09/16 12:56:40;;;;;;;4.40;1.70;;;;;;;17.73;58.43;96068.81;2035124;29;20188;-75
2022/09/16 12:58:19;;;;;;;8.93;1.90;;;;;;;17.06;59.17;96076.81;2035246;29;20265;-74
2022/09/16 12:59:50;;;;;;;7.80;1.75;;;;;;;17.05;60.01;96071.66;2025755;29;20231;-76
2022/09/16 13:00:51;;;;;;;4.95;1.42;;;;;;;17.01;58.48;96072.88;2033218;29;20197;-75
2022/09/16 13:02:18;;;;;;;8.23;2.35;;;;;;;17.23;59.00;96078.09;2035045;29;20293;-74
2022/09/16 13:03:25;;;;;;;3.70;1.42;;;;;;;17.40;58.27;96054.78;2033732;29;20208;-74
2022/09/16 13:04:38;;;;;;;6.88;2.08;;;;;;;18.16;56.74;96067.91;2026408;29;20795;-74
2022/09/16 13:05:45;;;;;;;6.05;1.60;;;;;;;17.83;55.00;96068.91;2036543;29;20204;-74
2022/09/16 13:06:50;;;;;;;4.88;1.60;;;;;;;17.85;55.33;96049.31;2034591;29;20291;-74
2022/09/16 13:07:56;;;;;;;3.58;1.40;;;;;;;18.35;55.95;96063.69;2033943;29;20344;-74
2022/09/16 13:09:14;;;;;;;5.20;1.80;;;;;;;18.05;54.50;96071.44;2028263;29;20474;-75
2022/09/16 13:10:24;;;;;;;3.50;1.38;;;;;;;17.92;56.43;96062.84;2032384;29;20291;-75
2022/09/16 13:11:56;;;;;;;4.53;1.20;;;;;;;18.06;56.50;96067.00;2026943;29;20205;-74
2022/09/16 13:13:47;;;;;;;5.57;1.63;;;;;;;18.16;54.34;96062.63;2023355;29;20253;-74
2022/09/16 13:14:52;;;;;;;5.07;1.70;;;;;;;18.76;53.72;96060.09;2031597;29;20336;-74
2022/09/16 13:15:56;;;;;;;3.03;1.70;;;;;;;18.79;53.11;96055.53;2022971;29;20322;-74
2022/09/16 13:17:01;;;;;;;7.47;1.58;;;;;;;18.80;53.66;96052.75;2024183;29;20226;-74
2022/09/16 13:18:15;;;;;;;5.70;2.25;;;;;;;17.99;57.18;96060.56;2025735;29;20313;-74
2022/09/16 13:19:38;;;;;;;6.90;1.67;;;;;;;18.32;56.91;96056.88;2027182;29;20314;-73
2022/09/16 13:26:07;;;;;;;5.95;1.48;;;;;;;17.51;54.68;96056.53;2081436;28;20224;-74
2022/09/16 13:27:26;;;;;;;8.40;2.08;;;;;;;17.09;56.74;96047.56;2078656;28;20653;-74
2022/09/16 13:28:39;;;;;;;4.10;1.58;;;;;;;16.87;57.68;96043.13;2081656;28;20302;-73
2022/09/16 13:29:43;;;;;;;5.70;1.90;;;;;;;16.60;57.99;96048.78;2081627;28;20292;-73
2022/09/16 13:30:44;;;;;;;4.72;2.00;;;;;;;16.27;59.32;96061.81;2082805;28;20204;-72
2022/09/16 13:31:47;;;;;;;7.05;3.60;;;;;;;16.11;59.05;96013.91;2080148;28;20198;-73
2022/09/16 13:32:49;;;;;;;13.52;4.88;;;;;;;16.49;58.58;96058.38;2082443;28;20201;-71
2022/09/16 13:33:57;;;;;;;8.32;4.97;;;;;;;16.42;59.61;96051.06;2072386;28;20212;-72
2022/09/16 13:35:04;;;;;;;4.95;2.40;;;;;;;16.48;60.28;96047.94;2084785;28;20208;-71
2022/09/16 13:36:29;;;;;;;6.82;1.55;;;;;;;16.52;59.88;96057.28;2083109;28;20564;-71
2022/09/16 13:37:30;;;;;;;3.22;1.35;;;;;;;16.39;59.29;96043.38;2079385;28;20280;-71
2022/09/16 13:38:41;;;;;;;6.35;2.17;;;;;;;16.88;58.96;96020.25;2079398;28;20225;-71
2022/09/16 13:39:43;;;;;;;5.75;1.63;;;;;;;17.44;55.30;96030.66;2077885;28;20228;-71
2022/09/16 13:40:56;;;;;;;10.63;1.85;;;;;;;17.47;55.87;96034.81;2080728;28;20247;-71
2022/09/16 13:42:24;;;;;;;9.65;1.50;;;;;;;17.76;54.76;96050.94;2081235;28;20280;-70
2022/09/16 13:43:49;;;;;;;6.97;1.65;;;;;;;18.42;53.69;96043.69;2091166;28;20200;-71
2022/09/16 13:50:03;;;;;;;4.20;1.48;;;;;;;18.95;51.46;96045.31;2063287;28;20218;-71
2022/09/16 13:51:12;;;;;;;5.55;1.73;;;;;;;19.06;51.75;96049.66;2069747;28;20676;-72
2022/09/16 13:52:26;;;;;;;5.15;1.55;;;;;;;18.23;53.24;96053.22;2065997;28;20651;-72
2022/09/16 13:53:30;;;;;;;8.13;2.00;;;;;;;17.92;55.68;96052.28;2065187;28;20704;-72
2022/09/16 13:54:48;;;;;;;6.70;1.27;;;;;;;17.39;56.74;96043.38;2064173;28;20956;-72
2022/09/16 13:56:13;;;;;;;3.40;1.50;;;;;;;18.21;53.82;96049.03;2066131;28;20261;-72
2022/09/16 13:57:27;;;;;;;4.88;1.40;;;;;;;18.43;52.54;96017.13;2068016;28;20693;-71
2022/09/16 13:58:36;;;;;;;5.85;1.60;;;;;;;18.50;52.98;96045.66;2065187;28;20661;-71
2022/09/16 14:00:04;;;;;;;5.13;1.58;;;;;;;17.54;54.22;96040.47;2066502;28;20305;-71
2022/09/16 14:01:21;;;;;;;8.55;1.60;;;;;;;18.22;52.55;96040.09;2074787;28;20205;-72
2022/09/16 14:02:47;;;;;;;6.15;1.42;;;;;;;18.39;53.43;96036.03;2071663;28;20225;-71
2022/09/16 14:04:05;;;;;;;5.35;1.40;;;;;;;18.92;51.64;96032.38;2057655;28;20324;-70
2022/09/16 14:05:45;;;;;;;6.53;1.50;;;;;;;19.33;51.70;96034.94;2070074;28;20297;-71
2022/09/16 14:07:16;;;;;;;11.23;1.67;;;;;;;19.64;51.32;96034.81;2060903;28;20224;-70
2022/09/16 14:15:07;;;;;;;5.68;1.73;;;;;;;17.21;55.43;96018.50;2062796;28;20221;-70
2022/09/16 14:16:18;;;;;;;6.25;1.20;;;;;;;17.42;55.25;96027.31;2066596;28;20233;-70
2022/09/16 14:17:24;;;;;;;3.13;1.50;;;;;;;17.17;55.22;96003.91;2068333;28;20689;-70
2022/09/16 14:18:29;;;;;;;7.40;1.80;;;;;;;17.35;55.44;95997.09;2067228;28;20238;-71
2022/09/16 14:19:35;;;;;;;9.27;2.42;;;;;;;17.90;54.40;96012.81;2054978;28;20629;-70
2022/09/16 14:26:04;;;;;;;6.78;1.92;;;;;;;19.05;51.87;96029.47;2063434;28;20574;-67
2022/09/16 14:27:32;;;;;;;6.55;1.77;;;;;;;18.40;52.90;96024.50;2067760;28;20285;-66
2022/09/16 14:28:37;;;;;;;4.43;1.60;;;;;;;18.12;53.84;96026.88;2055811;28;20243;-67
2022/09/16 14:29:39;;;;;;;3.83;1.30;;;;;;;18.22;53.37;96029.53;2074082;28;20291;-67
2022/09/16 14:30:59;;;;;;;9.63;1.90;;;;;;;17.66;55.37;96026.25;2072850;28;20205;-67
2022/09/16 14:32:02;;;;;;;7.43;1.48;;;;;;;17.28;55.59;96022.31;2068214;28;20209;-67
2022/09/16 14:33:05;;;;;;;6.63;2.05;;;;;;;17.51;54.93;96024.88;2066265;28;20289;-66
2022/09/16 14:34:09;;;;;;;8.95;1.77;;;;;;;18.38;54.16;96029.91;2058824;28;20312;-66
2022/09/16 14:35:21;;;;;;;4.50;1.38;;;;;;;18.94;53.34;96022.47;2071309;28;20593;-67
2022/09/16 14:36:34;;;;;;;7.80;1.83;;;;;;;19.21;52.55;96019.19;2067267;28;20198;-66
2022/09/16 14:37:37;;;;;;;7.68;2.10;;;;;;;19.21;51.37;96019.19;2064047;28;20289;-67
2022/09/16 14:38:47;;;;;;;6.95;1.63;;;;;;;18.98;51.68;96018.59;2055417;28;20277;-66
2022/09/16 14:39:51;;;;;;;3.78;1.35;;;;;;;19.16;51.47;96034.66;2065743;28;20205;-67
2022/09/16 14:40:55;;;;;;;7.53;1.50;;;;;;;19.25;52.11;96025.88;2071169;28;20202;-66
2022/09/16 14:42:04;;;;;;;3.95;1.40;;;;;;;19.26;51.81;96018.75;2063861;28;20691;-66
2022/09/16 14:43:11;;;;;;;8.43;1.92;;;;;;;19.40;51.46;96025.47;2064116;28;20241;-66
2022/09/16 14:44:18;;;;;;;6.75;1.42;;;;;;;19.14;50.48;96025.19;2056609;28;20228;-66
2022/09/16 14:45:21;;;;;;;4.53;1.40;;;;;;;19.10;51.18;96024.59;2072635;28;20652;-65
2022/09/16 14:46:22;;;;;;;4.88;1.42;;;;;;;18.95;51.50;96026.78;2068936;28;20198;-65
2022/09/16 14:47:38;;;;;;;2.65;1.20;;;;;;;18.64;51.15;96025.97;2068783;28;20221;-66
2022/09/16 14:48:52;;;;;;;4.35;2.17;;;;;;;18.56;51.69;96016.91;2061982;28;20197;-66
2022/09/16 14:50:00;;;;;;;5.95;1.40;;;;;;;18.01;52.56;96022.47;2072010;28;20225;-66
2022/09/16 14:51:02;;;;;;;6.22;1.88;;;;;;;17.66;55.25;96020.13;2071149;28;20641;-65
2022/09/16 14:52:14;;;;;;;4.35;1.30;;;;;;;17.29;53.65;96027.47;2066940;28;20242;-66
2022/09/16 14:53:28;;;;;;;10.27;1.77;;;;;;;16.85;55.07;96028.38;2065657;28;20565;-66
2022/09/16 14:54:43;;;;;;;8.20;1.90;;;;;;;16.59;55.83;96018.13;2059904;28;20233;-66
2022/09/16 14:55:48;;;;;;;4.35;1.65;;;;;;;16.85;55.70;96017.84;2067031;28;20209;-66
2022/09/16 14:57:02;;;;;;;5.32;1.60;;;;;;;17.31;54.41;96024.72;2064364;28;20244;-66
2022/09/16 14:58:03;;;;;;;6.60;1.52;;;;;;;17.61;53.54;96028.41;2066845;28;20811;-66
2022/09/16 14:59:10;;;;;;;2.88;1.30;;;;;;;17.62;52.45;96014.25;2064696;28;20270;-66
2022/09/16 15:00:17;;;;;;;5.05;1.63;;;;;;;17.53;52.60;96005.28;2064402;28;20233;-66
2022/09/16 15:01:26;;;;;;;6.45;1.50;;;;;;;17.28;53.85;96012.59;2062798;28;20668;-66
2022/09/16 15:02:43;;;;;;;4.97;1.40;;;;;;;17.24;53.85;96023.53;2066411;28;20285;-66
2022/09/16 15:03:56;;;;;;;5.80;1.73;;;;;;;17.00;55.42;96026.34;2054696;28;20259;-66
2022/09/16 15:05:25;;;;;;;4.72;1.02;;;;;;;17.30;55.07;96012.47;2065235;28;20305;-66
2022/09/16 15:06:42;;;;;;;4.82;1.52;;;;;;;16.59;55.26;96003.13;2070053;28;20622;-66
2022/09/16 15:13:04;;;;;;;7.07;1.92;;;;;;;18.82;52.93;96020.91;2065525;28;20189;-65
2022/09/16 15:14:06;;;;;;;6.25;1.80;;;;;;;18.71;51.98;96001.50;2060581;28;20299;-66
2022/09/16 15:15:19;;;;;;;8.95;1.55;;;;;;;19.21;49.85;96018.34;2074137;28;20696;-65
2022/09/16 15:16:23;;;;;;;4.93;1.40;;;;;;;19.23;50.64;96019.88;2074212;28;20233;-66
2022/09/16 15:17:27;;;;;;;5.32;1.25;;;;;;;19.06;50.35;96010.81;2072425;28;20201;-65
2022/09/16 15:18:31;;;;;;;11.00;2.15;;;;;;;19.23;50.19;96019.03;2064459;28;20718;-65
2022/09/16 15:19:36;;;;;;;7.70;2.05;;;;;;;19.40;50.15;96020.16;2054265;28;20596;-65
2022/09/16 15:20:40;;;;;;;12.02;1.30;;;;;;;19.53;49.09;96014.63;2073039;28;20194;-65
2022/09/16 15:21:43;;;;;;;2.63;1.25;;;;;;;19.60;49.11;96020.19;2065135;28;20288;-65
2022/09/16 15:22:45;;;;;;;7.47;1.60;;;;;;;19.78;49.69;96023.78;2066320;28;20701;-65
2022/09/16 15:23:54;;;;;;;5.90;1.35;;;;;;;19.83;48.76;95996.91;2055068;28;20254;-66
2022/09/16 15:24:58;;;;;;;7.93;1.45;;;;;;;19.21;48.93;95998.03;2071892;28;20221;-65
2022/09/16 15:26:21;;;;;;;8.40;1.60;;;;;;;18.79;49.50;96010.56;2070864;28;20198;-65
2022/09/16 15:27:28;;;;;;;7.25;2.47;;;;;;;18.46;50.47;96018.66;2065559;28;20205;-65
2022/09/16 15:28:30;;;;;;;7.45;2.10;;;;;;;18.69;51.04;96014.03;2064540;28;20544;-66
2022/09/16 15:29:34;;;;;;;6.97;3.03;;;;;;;18.88;50.60;95997.38;2062246;28;20368;-65
2022/09/16 15:30:45;;;;;;;6.75;1.20;;;;;;;18.57;49.28;96012.47;2074484;28;20204;-65
2022/09/16 15:31:47;;;;;;;7.88;2.20;;;;;;;18.94;49.51;96019.81;2067863;28;20198;-65
2022/09/16 15:32:48;;;;;;;9.00;1.20;;;;;;;19.07;49.83;96019.56;2066319;28;20281;-65
2022/09/16 15:33:51;;;;;;;6.63;1.48;;;;;;;19.23;49.00;96029.63;2056802;28;20560;-65
2022/09/16 15:35:22;;;;;;;6.13;1.42;;;;;;;19.27;49.17;96019.63;2075232;28;20201;-65
2022/09/16 15:36:40;;;;;;;4.40;1.30;;;;;;;18.74;50.03;96021.53;2066792;28;20685;-65
2022/09/16 15:37:42;;;;;;;3.85;1.70;;;;;;;18.56;49.67;96013.41;2065238;28;20242;-65
2022/09/16 15:38:43;;;;;;;5.53;1.33;;;;;;;18.60;49.78;96017.47;2056764;28;20240;-65
2022/09/16 15:39:45;;;;;;;4.45;1.75;;;;;;;18.20;50.18;96027.03;2065734;28;20308;-64
2022/09/16 15:40:47;;;;;;;3.00;1.40;;;;;;;18.31;50.78;96026.13;2064766;28;20284;-65
2022/09/16 15:42:00;;;;;;;7.57;1.33;;;;;;;18.23;50.63;96023.28;2065408;28;20264;-64
2022/09/16 15:43:38;;;;;;;5.53;1.40;;;;;;;18.34;51.39;96022.38;2064282;28;20638;-65
2022/09/16 15:44:58;;;;;;;8.88;1.70;;;;;;;18.45;50.72;96027.59;2061367;28;20306;-65
2022/09/16 15:46:17;;;;;;;3.67;1.10;;;;;;;18.35;50.76;96001.09;2064045;28;20225;-65
2022/09/16 15:47:27;;;;;;;9.38;1.05;;;;;;;18.59;50.44;96029.03;2063402;28;20205;-65
2022/09/16 15:48:33;;;;;;;8.07;1.10;;;;;;;18.25;50.67;96032.75;2065497;28;20202;-65
2022/09/16 15:49:38;;;;;;;7.20;1.50;;;;;;;17.89;51.79;95981.22;2056619;28;20312;-65
2022/09/16 15:50:54;;;;;;;5.55;1.42;;;;;;;18.49;51.20;96028.16;2065987;28;20281;-65
2022/09/16 15:52:02;;;;;;;5.63;1.58;;;;;;;18.13;51.63;96025.88;2062759;28;20206;-63
2022/09/16 15:53:07;;;;;;;6.38;1.50;;;;;;;17.91;51.83;96032.94;2063815;28;20282;-64
2022/09/16 15:54:18;;;;;;;5.22;1.65;;;;;;;18.03;52.67;96025.84;2060191;28;20241;-63
2022/09/16 15:55:36;;;;;;;5.13;1.65;;;;;;;17.94;52.62;96023.94;2073899;28;20291;-64
2022/09/16 15:56:49;;;;;;;5.60;1.30;;;;;;;17.83;53.09;96031.94;2065496;28;20229;-63
2022/09/16 15:57:59;;;;;;;4.80;1.27;;;;;;;17.49;53.33;96035.56;2068589;28;20289;-64
2022/09/16 15:59:19;;;;;;;5.65;1.30;;;;;;;17.13;54.68;96030.50;2059025;28;20671;-65
2022/09/16 16:00:24;;;;;;;4.20;1.55;;;;;;;16.65;55.04;96029.00;2074209;28;20192;-64
2022/09/16 16:08:04;;;;;;;6.60;1.20;;;;;;;15.24;59.53;96040.56;2065683;28;20234;-64
2022/09/16 16:09:25;;;;;;;7.03;3.50;;;;;;;14.99;60.21;96037.06;2059102;28;20259;-64
2022/09/16 16:10:30;;;;;;;10.77;5.07;;;;;;;14.71;61.60;96027.69;2072234;28;20360;-64
2022/09/16 16:11:32;;;;;;;9.30;4.70;;;;;;;14.92;61.00;96034.03;2064246;28;20652;-64
2022/09/16 16:12:33;;;;;;;15.68;7.80;;;;;;;14.90;61.34;96033.31;2064126;28;20282;-67
2022/09/16 16:25:02;;;;;;;5.88;1.40;;;;;;;14.66;60.77;96028.00;2063538;28;20297;-64
2022/09/16 16:26:09;;;;;;;6.18;1.63;;;;;;;14.61;61.63;96032.72;2063904;28;20704;-63
2022/09/16 16:27:10;;;;;;;3.78;1.55;;;;;;;14.30;61.29;96011.25;2063845;28;20222;-64
2022/09/16 16:28:12;;;;;;;4.60;1.05;;;;;;;14.22;62.15;96024.91;2063216;28;20222;-64
2022/09/16 16:29:13;;;;;;;4.30;1.20;;;;;;;14.28;62.01;96029.72;2060527;28;20701;-64
2022/09/16 16:30:15;;;;;;;5.80;1.25;;;;;;;14.18;62.02;96029.53;2075065;28;20240;-64
2022/09/16 16:31:17;;;;;;;4.15;1.30;;;;;;;14.19;62.73;96038.22;2069377;28;20240;-64
2022/09/16 16:32:19;;;;;;;6.53;3.10;;;;;;;14.19;63.05;96028.59;2063209;28;20202;-64
2022/09/16 16:33:20;;;;;;;7.72;3.08;;;;;;;14.19;62.63;96033.84;2063048;28;20237;-65
2022/09/16 16:34:21;;;;;;;6.35;2.35;;;;;;;14.16;63.51;96041.91;2060436;28;20309;-65
2022/09/16 16:35:23;;;;;;;12.00;5.82;;;;;;;14.16;63.56;96039.28;2072310;28;20293;-64
2022/09/16 16:36:24;;;;;;;14.70;6.82;;;;;;;14.12;63.61;96043.06;2068217;28;20290;-65
2022/09/16 16:44:04;;;;;;;9.68;1.40;;;;;;;14.02;64.66;96045.47;2063432;28;20225;-64
2022/09/16 16:45:06;;;;;;;6.13;1.38;;;;;;;14.00;65.08;96038.66;2065881;28;20617;-64
2022/09/16 16:46:08;;;;;;;4.32;1.52;;;;;;;13.93;64.48;96040.84;2065395;28;20201;-64
2022/09/16 16:47:14;;;;;;;4.25;1.40;;;;;;;13.88;65.04;96042.97;2064189;28;20202;-64
2022/09/16 16:48:15;;;;;;;4.80;1.48;;;;;;;13.79;65.18;96035.69;2064225;28;20229;-64
2022/09/16 16:49:17;;;;;;;7.00;1.83;;;;;;;13.84;65.36;96044.94;2055430;28;20296;-64
2022/09/16 17:17:43;;;;;;;11.32;1.70;;;;;;;12.09;84.73;96081.28;2104951;27;20881;-69
